sensor_id;sensor_type;location;lat;lon;timestamp;P1;durP1;ratioP1;P2;durP2;ratioP2
53907;SDS011;40469;47.998;7.794;2023-12-04T00:00:04;20.02;;;5.95;;
53907;SDS011;40469;47.998;7.794;2023-12-04T00:02:31;9.40;;;4.63;;
53907;SDS011;40469;47.998;7.794;2023-12-04T00:04:57;9.88;;;5.95;;
53907;SDS011;40469;47.998;7.794;2023-12-04T00:07:22;5.85;;;3.95;;
53907;SDS011;40469;47.998;7.794;2023-12-04T00:09:47;13.57;;;5.45;;
53907;SDS011;40469;47.998;7.794;2023-12-04T00:12:13;6.90;;;5.05;;
53907;SDS011;40469;47.998;7.794;2023-12-04T00:14:38;7.50;;;3.83;;
53907;SDS011;40469;47.998;7.794;2023-12-04T00:17:03;7.13;;;3.95;;
53907;SDS011;40469;47.998;7.794;2023-12-04T00:19:29;10.88;;;3.88;;
53907;SDS011;40469;47.998;7.794;2023-12-04T00:21:54;8.98;;;4.25;;
53907;SDS011;40469;47.998;7.794;2023-12-04T00:24:20;5.10;;;3.20;;
53907;SDS011;40469;47.998;7.794;2023-12-04T00:26:45;8.40;;;4.88;;
53907;SDS011;40469;47.998;7.794;2023-12-04T00:29:10;9.85;;;3.38;;
53907;SDS011;40469;47.998;7.794;2023-12-04T00:31:36;6.38;;;3.95;;
53907;SDS011;40469;47.998;7.794;2023-12-04T00:34:01;7.18;;;3.85;;
53907;SDS011;40469;47.998;7.794;2023-12-04T00:36:27;7.68;;;4.55;;
53907;SDS011;40469;47.998;7.794;2023-12-04T00:38:52;7.03;;;4.28;;
53907;SDS011;40469;47.998;7.794;2023-12-04T00:41:17;6.03;;;3.60;;
53907;SDS011;40469;47.998;7.794;2023-12-04T00:43:43;7.15;;;3.95;;
53907;SDS011;40469;47.998;7.794;2023-12-04T00:46:08;7.78;;;3.25;;
53907;SDS011;40469;47.998;7.794;2023-12-04T00:48:34;8.13;;;4.78;;
53907;SDS011;40469;47.998;7.794;2023-12-04T00:50:59;6.13;;;3.92;;
53907;SDS011;40469;47.998;7.794;2023-12-04T00:53:24;4.20;;;3.38;;
53907;SDS011;40469;47.998;7.794;2023-12-04T00:55:50;5.30;;;4.13;;
53907;SDS011;40469;47.998;7.794;2023-12-04T00:58:15;5.97;;;3.25;;
53907;SDS011;40469;47.998;7.794;2023-12-04T01:00:40;6.13;;;3.65;;
53907;SDS011;40469;47.998;7.794;2023-12-04T01:03:06;5.65;;;4.13;;
53907;SDS011;40469;47.998;7.794;2023-12-04T01:05:31;4.95;;;3.75;;
53907;SDS011;40469;47.998;7.794;2023-12-04T01:07:56;8.10;;;3.90;;
53907;SDS011;40469;47.998;7.794;2023-12-04T01:10:22;6.32;;;3.33;;
53907;SDS011;40469;47.998;7.794;2023-12-04T01:12:47;6.38;;;3.67;;
53907;SDS011;40469;47.998;7.794;2023-12-04T01:15:13;6.43;;;4.78;;
53907;SDS011;40469;47.998;7.794;2023-12-04T01:17:38;4.50;;;3.55;;
53907;SDS011;40469;47.998;7.794;2023-12-04T01:20:04;14.07;;;5.18;;
53907;SDS011;40469;47.998;7.794;2023-12-04T01:22:30;12.07;;;4.43;;
53907;SDS011;40469;47.998;7.794;2023-12-04T01:24:55;11.32;;;4.78;;
53907;SDS011;40469;47.998;7.794;2023-12-04T01:27:20;5.50;;;3.92;;
53907;SDS011;40469;47.998;7.794;2023-12-04T01:29:46;8.45;;;3.85;;
53907;SDS011;40469;47.998;7.794;2023-12-04T01:32:11;5.45;;;4.07;;
53907;SDS011;40469;47.998;7.794;2023-12-04T01:34:36;6.70;;;4.22;;
53907;SDS011;40469;47.998;7.794;2023-12-04T01:37:02;5.75;;;3.53;;
53907;SDS011;40469;47.998;7.794;2023-12-04T01:39:27;5.20;;;3.70;;
53907;SDS011;40469;47.998;7.794;2023-12-04T01:41:52;11.13;;;4.25;;
53907;SDS011;40469;47.998;7.794;2023-12-04T01:44:18;6.63;;;3.53;;
53907;SDS011;40469;47.998;7.794;2023-12-04T01:46:44;6.75;;;3.70;;
53907;SDS011;40469;47.998;7.794;2023-12-04T01:49:09;9.00;;;4.80;;
53907;SDS011;40469;47.998;7.794;2023-12-04T01:51:35;7.88;;;4.18;;
53907;SDS011;40469;47.998;7.794;2023-12-04T01:54:00;11.65;;;5.85;;
53907;SDS011;40469;47.998;7.794;2023-12-04T01:56:29;12.68;;;5.95;;
53907;SDS011;40469;47.998;7.794;2023-12-04T01:58:55;19.05;;;5.65;;
53907;SDS011;40469;47.998;7.794;2023-12-04T02:01:20;12.10;;;4.50;;
53907;SDS011;40469;47.998;7.794;2023-12-04T02:03:47;6.85;;;4.47;;
53907;SDS011;40469;47.998;7.794;2023-12-04T02:06:13;18.70;;;4.85;;
53907;SDS011;40469;47.998;7.794;2023-12-04T02:08:40;10.98;;;6.35;;
53907;SDS011;40469;47.998;7.794;2023-12-04T02:11:06;6.50;;;3.97;;
53907;SDS011;40469;47.998;7.794;2023-12-04T02:13:31;13.07;;;6.05;;
53907;SDS011;40469;47.998;7.794;2023-12-04T02:15:57;20.42;;;4.40;;
53907;SDS011;40469;47.998;7.794;2023-12-04T02:18:26;8.65;;;4.72;;
53907;SDS011;40469;47.998;7.794;2023-12-04T02:20:53;6.10;;;4.47;;
53907;SDS011;40469;47.998;7.794;2023-12-04T02:23:18;12.38;;;5.65;;
53907;SDS011;40469;47.998;7.794;2023-12-04T02:25:43;16.95;;;7.32;;
53907;SDS011;40469;47.998;7.794;2023-12-04T02:28:10;8.10;;;4.65;;
53907;SDS011;40469;47.998;7.794;2023-12-04T02:30:38;14.05;;;4.10;;
53907;SDS011;40469;47.998;7.794;2023-12-04T02:33:08;10.68;;;4.57;;
53907;SDS011;40469;47.998;7.794;2023-12-04T02:35:36;8.20;;;3.92;;
53907;SDS011;40469;47.998;7.794;2023-12-04T02:38:04;6.47;;;3.20;;
53907;SDS011;40469;47.998;7.794;2023-12-04T02:40:31;6.25;;;4.40;;
53907;SDS011;40469;47.998;7.794;2023-12-04T02:42:56;10.73;;;3.88;;
53907;SDS011;40469;47.998;7.794;2023-12-04T02:45:22;3.80;;;2.83;;
53907;SDS011;40469;47.998;7.794;2023-12-04T02:47:47;6.65;;;3.58;;
53907;SDS011;40469;47.998;7.794;2023-12-04T02:50:12;7.15;;;3.35;;
53907;SDS011;40469;47.998;7.794;2023-12-04T02:52:38;7.68;;;4.22;;
53907;SDS011;40469;47.998;7.794;2023-12-04T02:55:03;3.42;;;2.28;;
53907;SDS011;40469;47.998;7.794;2023-12-04T02:57:29;11.93;;;3.80;;
53907;SDS011;40469;47.998;7.794;2023-12-04T02:59:54;4.63;;;3.80;;
53907;SDS011;40469;47.998;7.794;2023-12-04T03:02:20;4.35;;;2.47;;
53907;SDS011;40469;47.998;7.794;2023-12-04T03:04:45;6.38;;;3.03;;
53907;SDS011;40469;47.998;7.794;2023-12-04T03:07:11;5.13;;;2.78;;
53907;SDS011;40469;47.998;7.794;2023-12-04T03:09:36;3.50;;;2.65;;
53907;SDS011;40469;47.998;7.794;2023-12-04T03:12:01;3.60;;;2.60;;
53907;SDS011;40469;47.998;7.794;2023-12-04T03:14:27;3.83;;;2.28;;
53907;SDS011;40469;47.998;7.794;2023-12-04T03:16:52;3.65;;;2.83;;
53907;SDS011;40469;47.998;7.794;2023-12-04T03:19:17;4.47;;;2.95;;
53907;SDS011;40469;47.998;7.794;2023-12-04T03:21:43;5.82;;;3.03;;
53907;SDS011;40469;47.998;7.794;2023-12-04T03:24:08;10.02;;;4.65;;
53907;SDS011;40469;47.998;7.794;2023-12-04T03:26:34;5.93;;;2.80;;
53907;SDS011;40469;47.998;7.794;2023-12-04T03:29:00;5.38;;;3.28;;
53907;SDS011;40469;47.998;7.794;2023-12-04T03:31:25;4.20;;;3.30;;
53907;SDS011;40469;47.998;7.794;2023-12-04T03:33:51;6.70;;;3.70;;
53907;SDS011;40469;47.998;7.794;2023-12-04T03:36:16;10.70;;;4.35;;
53907;SDS011;40469;47.998;7.794;2023-12-04T03:38:41;9.30;;;4.05;;
53907;SDS011;40469;47.998;7.794;2023-12-04T03:41:13;12.13;;;4.70;;
53907;SDS011;40469;47.998;7.794;2023-12-04T03:43:40;3.70;;;2.58;;
53907;SDS011;40469;47.998;7.794;2023-12-04T03:46:05;7.47;;;3.60;;
53907;SDS011;40469;47.998;7.794;2023-12-04T03:48:30;12.73;;;5.32;;
53907;SDS011;40469;47.998;7.794;2023-12-04T03:50:56;7.90;;;3.83;;
53907;SDS011;40469;47.998;7.794;2023-12-04T03:53:21;7.57;;;3.97;;
53907;SDS011;40469;47.998;7.794;2023-12-04T03:55:46;12.50;;;3.97;;
53907;SDS011;40469;47.998;7.794;2023-12-04T03:58:12;6.20;;;3.95;;
53907;SDS011;40469;47.998;7.794;2023-12-04T04:00:37;6.30;;;3.55;;
53907;SDS011;40469;47.998;7.794;2023-12-04T04:03:06;5.25;;;3.35;;
53907;SDS011;40469;47.998;7.794;2023-12-04T04:05:31;8.40;;;3.70;;
53907;SDS011;40469;47.998;7.794;2023-12-04T04:07:59;8.70;;;4.00;;
53907;SDS011;40469;47.998;7.794;2023-12-04T04:10:24;6.80;;;4.15;;
53907;SDS011;40469;47.998;7.794;2023-12-04T04:12:50;5.60;;;3.28;;
53907;SDS011;40469;47.998;7.794;2023-12-04T04:15:15;7.90;;;4.50;;
53907;SDS011;40469;47.998;7.794;2023-12-04T04:17:40;5.90;;;3.72;;
53907;SDS011;40469;47.998;7.794;2023-12-04T04:20:06;8.02;;;4.20;;
53907;SDS011;40469;47.998;7.794;2023-12-04T04:22:32;8.20;;;3.50;;
53907;SDS011;40469;47.998;7.794;2023-12-04T04:25:02;15.07;;;5.25;;
53907;SDS011;40469;47.998;7.794;2023-12-04T04:27:28;7.65;;;4.85;;
53907;SDS011;40469;47.998;7.794;2023-12-04T04:29:54;10.10;;;4.15;;
53907;SDS011;40469;47.998;7.794;2023-12-04T04:32:19;6.45;;;3.30;;
53907;SDS011;40469;47.998;7.794;2023-12-04T04:34:44;7.03;;;4.30;;
53907;SDS011;40469;47.998;7.794;2023-12-04T04:37:10;7.75;;;4.65;;
53907;SDS011;40469;47.998;7.794;2023-12-04T04:39:35;7.15;;;4.25;;
53907;SDS011;40469;47.998;7.794;2023-12-04T04:42:00;8.20;;;5.03;;
53907;SDS011;40469;47.998;7.794;2023-12-04T04:44:26;7.18;;;4.32;;
53907;SDS011;40469;47.998;7.794;2023-12-04T04:46:51;6.18;;;3.50;;
53907;SDS011;40469;47.998;7.794;2023-12-04T04:49:16;9.73;;;3.45;;
53907;SDS011;40469;47.998;7.794;2023-12-04T04:51:42;7.25;;;4.10;;
53907;SDS011;40469;47.998;7.794;2023-12-04T04:54:07;11.88;;;3.58;;
53907;SDS011;40469;47.998;7.794;2023-12-04T04:56:32;6.30;;;3.05;;
53907;SDS011;40469;47.998;7.794;2023-12-04T04:58:58;5.63;;;3.30;;
53907;SDS011;40469;47.998;7.794;2023-12-04T05:01:23;13.82;;;4.32;;
53907;SDS011;40469;47.998;7.794;2023-12-04T05:03:48;7.93;;;3.72;;
53907;SDS011;40469;47.998;7.794;2023-12-04T05:06:14;9.18;;;5.20;;
53907;SDS011;40469;47.998;7.794;2023-12-04T05:08:39;9.95;;;5.78;;
53907;SDS011;40469;47.998;7.794;2023-12-04T05:11:05;4.15;;;2.85;;
53907;SDS011;40469;47.998;7.794;2023-12-04T05:13:30;4.65;;;3.47;;
53907;SDS011;40469;47.998;7.794;2023-12-04T05:15:55;6.97;;;4.22;;
53907;SDS011;40469;47.998;7.794;2023-12-04T05:18:21;6.07;;;3.70;;
53907;SDS011;40469;47.998;7.794;2023-12-04T05:20:46;6.75;;;4.05;;
53907;SDS011;40469;47.998;7.794;2023-12-04T05:23:11;3.70;;;2.58;;
53907;SDS011;40469;47.998;7.794;2023-12-04T05:25:37;2.90;;;2.40;;
53907;SDS011;40469;47.998;7.794;2023-12-04T05:28:03;8.80;;;6.13;;
53907;SDS011;40469;47.998;7.794;2023-12-04T05:30:29;9.75;;;4.40;;
53907;SDS011;40469;47.998;7.794;2023-12-04T05:32:54;7.85;;;3.88;;
53907;SDS011;40469;47.998;7.794;2023-12-04T05:35:19;9.10;;;2.80;;
53907;SDS011;40469;47.998;7.794;2023-12-04T05:37:45;4.35;;;3.65;;
53907;SDS011;40469;47.998;7.794;2023-12-04T05:40:10;12.40;;;5.70;;
53907;SDS011;40469;47.998;7.794;2023-12-04T05:42:36;5.03;;;3.40;;
53907;SDS011;40469;47.998;7.794;2023-12-04T05:45:02;11.35;;;4.70;;
53907;SDS011;40469;47.998;7.794;2023-12-04T05:47:28;13.52;;;3.78;;
53907;SDS011;40469;47.998;7.794;2023-12-04T05:49:53;10.35;;;5.32;;
53907;SDS011;40469;47.998;7.794;2023-12-04T05:52:18;7.95;;;3.53;;
53907;SDS011;40469;47.998;7.794;2023-12-04T05:54:43;7.57;;;4.60;;
53907;SDS011;40469;47.998;7.794;2023-12-04T05:57:09;8.07;;;3.65;;
53907;SDS011;40469;47.998;7.794;2023-12-04T05:59:34;9.93;;;4.28;;
53907;SDS011;40469;47.998;7.794;2023-12-04T06:02:00;7.03;;;4.40;;
53907;SDS011;40469;47.998;7.794;2023-12-04T06:04:26;11.25;;;5.32;;
53907;SDS011;40469;47.998;7.794;2023-12-04T06:06:52;6.25;;;4.30;;
53907;SDS011;40469;47.998;7.794;2023-12-04T06:09:17;8.90;;;5.10;;
53907;SDS011;40469;47.998;7.794;2023-12-04T06:11:43;7.95;;;4.18;;
53907;SDS011;40469;47.998;7.794;2023-12-04T06:14:08;9.35;;;4.22;;
53907;SDS011;40469;47.998;7.794;2023-12-04T06:16:34;6.35;;;4.68;;
53907;SDS011;40469;47.998;7.794;2023-12-04T06:18:59;11.93;;;7.00;;
53907;SDS011;40469;47.998;7.794;2023-12-04T06:21:24;6.35;;;4.35;;
53907;SDS011;40469;47.998;7.794;2023-12-04T06:23:50;7.28;;;3.85;;
53907;SDS011;40469;47.998;7.794;2023-12-04T06:26:15;9.90;;;5.15;;
53907;SDS011;40469;47.998;7.794;2023-12-04T06:28:42;15.68;;;7.53;;
53907;SDS011;40469;47.998;7.794;2023-12-04T06:31:08;15.77;;;6.65;;
53907;SDS011;40469;47.998;7.794;2023-12-04T06:33:34;9.73;;;4.18;;
53907;SDS011;40469;47.998;7.794;2023-12-04T06:36:00;10.52;;;4.97;;
53907;SDS011;40469;47.998;7.794;2023-12-04T06:38:26;5.35;;;4.22;;
53907;SDS011;40469;47.998;7.794;2023-12-04T06:40:56;27.48;;;8.40;;
53907;SDS011;40469;47.998;7.794;2023-12-04T06:43:22;12.13;;;5.82;;
53907;SDS011;40469;47.998;7.794;2023-12-04T06:45:48;10.48;;;5.18;;
53907;SDS011;40469;47.998;7.794;2023-12-04T06:48:13;10.13;;;4.90;;
53907;SDS011;40469;47.998;7.794;2023-12-04T06:50:40;17.23;;;6.75;;
53907;SDS011;40469;47.998;7.794;2023-12-04T06:53:06;16.98;;;7.78;;
53907;SDS011;40469;47.998;7.794;2023-12-04T06:55:31;18.13;;;9.60;;
53907;SDS011;40469;47.998;7.794;2023-12-04T06:57:57;16.45;;;7.15;;
53907;SDS011;40469;47.998;7.794;2023-12-04T07:00:22;15.23;;;8.02;;
53907;SDS011;40469;47.998;7.794;2023-12-04T07:02:47;11.13;;;4.30;;
53907;SDS011;40469;47.998;7.794;2023-12-04T07:05:13;11.77;;;5.32;;
53907;SDS011;40469;47.998;7.794;2023-12-04T07:07:38;17.15;;;7.10;;
53907;SDS011;40469;47.998;7.794;2023-12-04T07:10:05;17.40;;;7.43;;
53907;SDS011;40469;47.998;7.794;2023-12-04T07:12:30;15.25;;;6.75;;
53907;SDS011;40469;47.998;7.794;2023-12-04T07:14:56;15.90;;;7.40;;
53907;SDS011;40469;47.998;7.794;2023-12-04T07:17:21;14.98;;;5.70;;
53907;SDS011;40469;47.998;7.794;2023-12-04T07:19:47;19.95;;;7.43;;
53907;SDS011;40469;47.998;7.794;2023-12-04T07:22:12;13.23;;;7.65;;
53907;SDS011;40469;47.998;7.794;2023-12-04T07:24:38;12.73;;;7.32;;
53907;SDS011;40469;47.998;7.794;2023-12-04T07:27:03;15.85;;;6.32;;
53907;SDS011;40469;47.998;7.794;2023-12-04T07:29:29;16.15;;;7.00;;
53907;SDS011;40469;47.998;7.794;2023-12-04T07:31:54;14.43;;;5.93;;
53907;SDS011;40469;47.998;7.794;2023-12-04T07:34:20;9.85;;;4.72;;
53907;SDS011;40469;47.998;7.794;2023-12-04T07:36:45;10.23;;;4.65;;
53907;SDS011;40469;47.998;7.794;2023-12-04T07:39:10;12.57;;;6.32;;
53907;SDS011;40469;47.998;7.794;2023-12-04T07:41:36;14.45;;;6.60;;
53907;SDS011;40469;47.998;7.794;2023-12-04T07:44:02;13.30;;;5.50;;
53907;SDS011;40469;47.998;7.794;2023-12-04T07:46:28;14.65;;;8.98;;
53907;SDS011;40469;47.998;7.794;2023-12-04T07:48:54;18.63;;;8.63;;
53907;SDS011;40469;47.998;7.794;2023-12-04T07:51:19;17.65;;;7.82;;
53907;SDS011;40469;47.998;7.794;2023-12-04T07:53:44;14.48;;;7.32;;
53907;SDS011;40469;47.998;7.794;2023-12-04T07:56:11;11.00;;;5.55;;
53907;SDS011;40469;47.998;7.794;2023-12-04T07:58:37;11.80;;;5.82;;
53907;SDS011;40469;47.998;7.794;2023-12-04T08:01:02;11.57;;;5.95;;
53907;SDS011;40469;47.998;7.794;2023-12-04T08:03:28;13.82;;;7.55;;
53907;SDS011;40469;47.998;7.794;2023-12-04T08:05:53;23.58;;;8.48;;
53907;SDS011;40469;47.998;7.794;2023-12-04T08:08:19;13.20;;;7.20;;
53907;SDS011;40469;47.998;7.794;2023-12-04T08:10:44;10.32;;;4.35;;
53907;SDS011;40469;47.998;7.794;2023-12-04T08:13:10;19.13;;;6.95;;
53907;SDS011;40469;47.998;7.794;2023-12-04T08:15:35;8.82;;;6.38;;
53907;SDS011;40469;47.998;7.794;2023-12-04T08:18:00;12.68;;;5.57;;
53907;SDS011;40469;47.998;7.794;2023-12-04T08:20:26;10.95;;;6.60;;
53907;SDS011;40469;47.998;7.794;2023-12-04T08:22:51;20.13;;;8.60;;
53907;SDS011;40469;47.998;7.794;2023-12-04T08:25:17;13.80;;;8.13;;
53907;SDS011;40469;47.998;7.794;2023-12-04T08:27:42;7.05;;;5.18;;
53907;SDS011;40469;47.998;7.794;2023-12-04T08:30:07;7.22;;;4.68;;
53907;SDS011;40469;47.998;7.794;2023-12-04T08:32:33;12.10;;;4.75;;
53907;SDS011;40469;47.998;7.794;2023-12-04T08:34:58;12.65;;;6.43;;
53907;SDS011;40469;47.998;7.794;2023-12-04T08:37:24;15.88;;;6.30;;
53907;SDS011;40469;47.998;7.794;2023-12-04T08:39:49;11.05;;;6.13;;
53907;SDS011;40469;47.998;7.794;2023-12-04T08:42:14;15.10;;;7.93;;
53907;SDS011;40469;47.998;7.794;2023-12-04T08:44:40;17.75;;;7.95;;
53907;SDS011;40469;47.998;7.794;2023-12-04T08:47:05;9.40;;;5.85;;
53907;SDS011;40469;47.998;7.794;2023-12-04T08:49:31;12.32;;;6.75;;
53907;SDS011;40469;47.998;7.794;2023-12-04T08:51:57;9.35;;;5.10;;
53907;SDS011;40469;47.998;7.794;2023-12-04T08:54:23;11.05;;;7.15;;
53907;SDS011;40469;47.998;7.794;2023-12-04T08:56:49;13.52;;;6.90;;
53907;SDS011;40469;47.998;7.794;2023-12-04T08:59:14;11.13;;;5.28;;
53907;SDS011;40469;47.998;7.794;2023-12-04T09:01:39;8.70;;;5.90;;
53907;SDS011;40469;47.998;7.794;2023-12-04T09:04:05;24.42;;;5.43;;
53907;SDS011;40469;47.998;7.794;2023-12-04T09:06:33;13.45;;;7.13;;
53907;SDS011;40469;47.998;7.794;2023-12-04T09:08:58;11.55;;;6.60;;
53907;SDS011;40469;47.998;7.794;2023-12-04T09:11:23;22.00;;;8.00;;
53907;SDS011;40469;47.998;7.794;2023-12-04T09:13:49;14.60;;;8.65;;
53907;SDS011;40469;47.998;7.794;2023-12-04T09:16:14;15.55;;;7.80;;
53907;SDS011;40469;47.998;7.794;2023-12-04T09:18:39;17.58;;;8.07;;
53907;SDS011;40469;47.998;7.794;2023-12-04T09:21:05;13.20;;;7.78;;
53907;SDS011;40469;47.998;7.794;2023-12-04T09:23:30;13.82;;;7.15;;
53907;SDS011;40469;47.998;7.794;2023-12-04T09:25:56;14.23;;;7.75;;
53907;SDS011;40469;47.998;7.794;2023-12-04T09:28:21;18.48;;;6.10;;
53907;SDS011;40469;47.998;7.794;2023-12-04T09:30:46;16.73;;;7.85;;
53907;SDS011;40469;47.998;7.794;2023-12-04T09:33:12;21.63;;;8.63;;
53907;SDS011;40469;47.998;7.794;2023-12-04T09:35:37;12.80;;;7.32;;
53907;SDS011;40469;47.998;7.794;2023-12-04T09:38:02;18.17;;;8.10;;
53907;SDS011;40469;47.998;7.794;2023-12-04T09:40:28;19.25;;;9.32;;
53907;SDS011;40469;47.998;7.794;2023-12-04T09:42:53;20.27;;;7.65;;
53907;SDS011;40469;47.998;7.794;2023-12-04T09:45:19;16.55;;;6.72;;
53907;SDS011;40469;47.998;7.794;2023-12-04T09:47:45;26.58;;;7.80;;
53907;SDS011;40469;47.998;7.794;2023-12-04T09:50:12;21.38;;;7.75;;
53907;SDS011;40469;47.998;7.794;2023-12-04T09:52:39;18.15;;;7.80;;
53907;SDS011;40469;47.998;7.794;2023-12-04T09:55:05;15.35;;;7.32;;
53907;SDS011;40469;47.998;7.794;2023-12-04T09:57:30;23.73;;;10.43;;
53907;SDS011;40469;47.998;7.794;2023-12-04T09:59:56;20.33;;;7.53;;
53907;SDS011;40469;47.998;7.794;2023-12-04T10:02:25;17.15;;;7.80;;
53907;SDS011;40469;47.998;7.794;2023-12-04T10:04:51;16.88;;;7.20;;
53907;SDS011;40469;47.998;7.794;2023-12-04T10:07:17;24.70;;;10.50;;
53907;SDS011;40469;47.998;7.794;2023-12-04T10:09:42;19.00;;;9.90;;
53907;SDS011;40469;47.998;7.794;2023-12-04T10:12:07;12.13;;;6.65;;
53907;SDS011;40469;47.998;7.794;2023-12-04T10:14:33;22.15;;;9.85;;
53907;SDS011;40469;47.998;7.794;2023-12-04T10:16:58;15.00;;;8.90;;
53907;SDS011;40469;47.998;7.794;2023-12-04T10:21:51;17.58;;;6.93;;
53907;SDS011;40469;47.998;7.794;2023-12-04T10:24:28;11.38;;;7.30;;
53907;SDS011;40469;47.998;7.794;2023-12-04T10:26:58;12.05;;;7.28;;
53907;SDS011;40469;47.998;7.794;2023-12-04T10:29:29;17.67;;;8.40;;
53907;SDS011;40469;47.998;7.794;2023-12-04T10:32:04;11.77;;;5.60;;
53907;SDS011;40469;47.998;7.794;2023-12-04T10:34:30;17.02;;;8.07;;
53907;SDS011;40469;47.998;7.794;2023-12-04T10:36:58;16.27;;;8.93;;
53907;SDS011;40469;47.998;7.794;2023-12-04T10:39:24;17.98;;;9.43;;
53907;SDS011;40469;47.998;7.794;2023-12-04T10:42:00;15.32;;;9.00;;
53907;SDS011;40469;47.998;7.794;2023-12-04T10:44:27;12.10;;;6.82;;
53907;SDS011;40469;47.998;7.794;2023-12-04T10:46:54;17.48;;;8.25;;
53907;SDS011;40469;47.998;7.794;2023-12-04T10:49:23;19.40;;;8.45;;
53907;SDS011;40469;47.998;7.794;2023-12-04T10:51:51;15.80;;;8.10;;
53907;SDS011;40469;47.998;7.794;2023-12-04T10:54:17;14.40;;;8.20;;
53907;SDS011;40469;47.998;7.794;2023-12-04T10:56:43;20.85;;;9.52;;
53907;SDS011;40469;47.998;7.794;2023-12-04T10:59:11;19.30;;;8.45;;
53907;SDS011;40469;47.998;7.794;2023-12-04T11:01:40;23.13;;;8.43;;
53907;SDS011;40469;47.998;7.794;2023-12-04T11:04:10;21.38;;;9.85;;
53907;SDS011;40469;47.998;7.794;2023-12-04T11:06:42;23.42;;;10.85;;
53907;SDS011;40469;47.998;7.794;2023-12-04T11:09:11;18.10;;;8.82;;
53907;SDS011;40469;47.998;7.794;2023-12-04T11:11:38;22.60;;;11.18;;
53907;SDS011;40469;47.998;7.794;2023-12-04T11:14:09;25.00;;;10.05;;
53907;SDS011;40469;47.998;7.794;2023-12-04T11:16:41;25.00;;;10.95;;
53907;SDS011;40469;47.998;7.794;2023-12-04T11:19:20;25.45;;;10.68;;
53907;SDS011;40469;47.998;7.794;2023-12-04T11:21:53;24.02;;;8.50;;
53907;SDS011;40469;47.998;7.794;2023-12-04T11:24:24;22.50;;;9.32;;
53907;SDS011;40469;47.998;7.794;2023-12-04T11:26:49;23.08;;;11.07;;
53907;SDS011;40469;47.998;7.794;2023-12-04T11:29:16;26.30;;;11.38;;
53907;SDS011;40469;47.998;7.794;2023-12-04T11:31:43;29.27;;;11.52;;
53907;SDS011;40469;47.998;7.794;2023-12-04T11:34:11;23.75;;;10.23;;
53907;SDS011;40469;47.998;7.794;2023-12-04T11:36:37;28.08;;;10.32;;
53907;SDS011;40469;47.998;7.794;2023-12-04T11:39:07;25.45;;;12.27;;
53907;SDS011;40469;47.998;7.794;2023-12-04T11:41:35;19.65;;;9.95;;
53907;SDS011;40469;47.998;7.794;2023-12-04T11:44:00;22.83;;;10.05;;
53907;SDS011;40469;47.998;7.794;2023-12-04T11:46:29;28.50;;;11.60;;
53907;SDS011;40469;47.998;7.794;2023-12-04T11:48:57;26.38;;;12.20;;
53907;SDS011;40469;47.998;7.794;2023-12-04T11:54:09;24.83;;;11.60;;
53907;SDS011;40469;47.998;7.794;2023-12-04T11:56:35;23.90;;;11.63;;
53907;SDS011;40469;47.998;7.794;2023-12-04T11:59:04;24.58;;;11.40;;
53907;SDS011;40469;47.998;7.794;2023-12-04T12:01:35;29.55;;;12.80;;
53907;SDS011;40469;47.998;7.794;2023-12-04T12:04:05;26.90;;;11.45;;
53907;SDS011;40469;47.998;7.794;2023-12-04T12:06:31;26.15;;;11.23;;
53907;SDS011;40469;47.998;7.794;2023-12-04T12:08:56;22.92;;;10.43;;
53907;SDS011;40469;47.998;7.794;2023-12-04T12:11:23;27.35;;;10.93;;
53907;SDS011;40469;47.998;7.794;2023-12-04T12:13:49;22.58;;;10.95;;
53907;SDS011;40469;47.998;7.794;2023-12-04T12:16:14;24.55;;;12.20;;
53907;SDS011;40469;47.998;7.794;2023-12-04T12:18:40;26.00;;;12.60;;
53907;SDS011;40469;47.998;7.794;2023-12-04T12:21:06;25.85;;;12.07;;
53907;SDS011;40469;47.998;7.794;2023-12-04T12:23:32;22.05;;;10.57;;
53907;SDS011;40469;47.998;7.794;2023-12-04T12:25:58;28.98;;;12.07;;
53907;SDS011;40469;47.998;7.794;2023-12-04T12:28:24;21.85;;;10.85;;
53907;SDS011;40469;47.998;7.794;2023-12-04T12:30:49;21.90;;;10.75;;
53907;SDS011;40469;47.998;7.794;2023-12-04T12:33:15;28.45;;;10.93;;
53907;SDS011;40469;47.998;7.794;2023-12-04T12:35:40;24.80;;;11.43;;
53907;SDS011;40469;47.998;7.794;2023-12-04T12:38:06;23.48;;;11.63;;
53907;SDS011;40469;47.998;7.794;2023-12-04T12:40:32;24.63;;;12.80;;
53907;SDS011;40469;47.998;7.794;2023-12-04T12:43:07;26.52;;;12.98;;
53907;SDS011;40469;47.998;7.794;2023-12-04T12:45:40;28.92;;;12.10;;
53907;SDS011;40469;47.998;7.794;2023-12-04T12:48:14;24.80;;;10.38;;
53907;SDS011;40469;47.998;7.794;2023-12-04T12:50:41;27.92;;;12.13;;
53907;SDS011;40469;47.998;7.794;2023-12-04T12:53:08;26.30;;;12.93;;
53907;SDS011;40469;47.998;7.794;2023-12-04T12:55:37;36.47;;;14.88;;
53907;SDS011;40469;47.998;7.794;2023-12-04T12:58:03;30.70;;;14.27;;
53907;SDS011;40469;47.998;7.794;2023-12-04T13:00:30;29.83;;;13.25;;
53907;SDS011;40469;47.998;7.794;2023-12-04T13:02:56;31.60;;;13.85;;
53907;SDS011;40469;47.998;7.794;2023-12-04T13:05:22;32.97;;;14.07;;
53907;SDS011;40469;47.998;7.794;2023-12-04T13:07:47;28.08;;;13.88;;
53907;SDS011;40469;47.998;7.794;2023-12-04T13:10:13;26.25;;;12.52;;
53907;SDS011;40469;47.998;7.794;2023-12-04T13:12:38;25.55;;;12.07;;
53907;SDS011;40469;47.998;7.794;2023-12-04T13:15:04;26.67;;;12.05;;
53907;SDS011;40469;47.998;7.794;2023-12-04T13:17:30;27.40;;;12.52;;
53907;SDS011;40469;47.998;7.794;2023-12-04T13:19:55;34.38;;;15.88;;
53907;SDS011;40469;47.998;7.794;2023-12-04T13:22:20;34.30;;;13.60;;
53907;SDS011;40469;47.998;7.794;2023-12-04T13:24:46;33.00;;;15.43;;
53907;SDS011;40469;47.998;7.794;2023-12-04T13:27:11;38.65;;;17.02;;
53907;SDS011;40469;47.998;7.794;2023-12-04T13:29:38;35.67;;;17.52;;
53907;SDS011;40469;47.998;7.794;2023-12-04T13:32:04;36.38;;;18.35;;
53907;SDS011;40469;47.998;7.794;2023-12-04T13:34:30;34.75;;;15.25;;
53907;SDS011;40469;47.998;7.794;2023-12-04T13:36:55;39.67;;;16.17;;
53907;SDS011;40469;47.998;7.794;2023-12-04T13:39:21;35.47;;;16.27;;
53907;SDS011;40469;47.998;7.794;2023-12-04T13:42:03;36.08;;;14.23;;
53907;SDS011;40469;47.998;7.794;2023-12-04T13:44:47;34.17;;;14.10;;
53907;SDS011;40469;47.998;7.794;2023-12-04T13:47:13;30.45;;;14.73;;
53907;SDS011;40469;47.998;7.794;2023-12-04T13:49:39;31.60;;;14.80;;
53907;SDS011;40469;47.998;7.794;2023-12-04T13:52:05;33.15;;;15.48;;
53907;SDS011;40469;47.998;7.794;2023-12-04T13:54:33;37.45;;;16.23;;
53907;SDS011;40469;47.998;7.794;2023-12-04T13:57:12;32.33;;;14.20;;
53907;SDS011;40469;47.998;7.794;2023-12-04T13:59:46;28.10;;;13.73;;
53907;SDS011;40469;47.998;7.794;2023-12-04T14:02:11;31.35;;;15.30;;
53907;SDS011;40469;47.998;7.794;2023-12-04T14:04:37;37.38;;;15.63;;
53907;SDS011;40469;47.998;7.794;2023-12-04T14:07:04;32.78;;;13.45;;
53907;SDS011;40469;47.998;7.794;2023-12-04T14:09:29;30.08;;;13.73;;
53907;SDS011;40469;47.998;7.794;2023-12-04T14:11:54;25.88;;;12.82;;
53907;SDS011;40469;47.998;7.794;2023-12-04T14:14:20;26.58;;;10.80;;
53907;SDS011;40469;47.998;7.794;2023-12-04T14:16:45;27.27;;;12.35;;
53907;SDS011;40469;47.998;7.794;2023-12-04T14:19:12;25.85;;;12.38;;
53907;SDS011;40469;47.998;7.794;2023-12-04T14:21:39;23.75;;;11.43;;
53907;SDS011;40469;47.998;7.794;2023-12-04T14:24:05;28.48;;;12.38;;
53907;SDS011;40469;47.998;7.794;2023-12-04T14:26:30;23.85;;;10.77;;
53907;SDS011;40469;47.998;7.794;2023-12-04T14:28:56;28.00;;;11.40;;
53907;SDS011;40469;47.998;7.794;2023-12-04T14:31:23;24.58;;;11.15;;
53907;SDS011;40469;47.998;7.794;2023-12-04T14:33:48;24.27;;;11.10;;